createdAt,value
2022-11-24T00:00:02.098Z,100.08
2022-11-24T00:05:02.180Z,100.28
2022-11-24T00:10:02.195Z,100.28
2022-11-24T00:20:02.036Z,99.85
2022-11-24T00:25:02.216Z,100.04
2022-11-24T00:30:02.014Z,99.79
2022-11-24T00:35:01.959Z,99.72
2022-11-24T00:40:01.947Z,99.32
2022-11-24T00:45:12.946Z,99.07
2022-11-24T00:50:02.131Z,98.25
2022-11-24T00:55:01.298Z,99.69
2022-11-24T01:00:02.524Z,99.76
2022-11-24T01:05:01.258Z,99.67
2022-11-24T01:10:01.670Z,98.25
2022-11-24T01:15:01.720Z,98.21
2022-11-24T01:20:01.354Z,98.27
2022-11-24T01:25:01.967Z,98.53
2022-11-24T01:30:01.943Z,98.62
2022-11-24T01:35:01.319Z,100.41
2022-11-24T01:40:01.470Z,98.33
2022-11-24T01:45:04.551Z,98.5
2022-11-24T01:50:01.702Z,98.66
2022-11-24T01:55:01.472Z,98.23
2022-11-24T02:00:01.379Z,98.63
2022-11-24T02:05:01.382Z,98.3
2022-11-24T02:10:01.685Z,100.24
2022-11-24T02:15:01.901Z,100.37
2022-11-24T02:20:02.059Z,100.13
2022-11-24T02:25:01.883Z,98.64
2022-11-24T02:30:02.192Z,100.14
2022-11-24T02:35:01.333Z,100.33
2022-11-24T02:40:01.783Z,98.15
2022-11-24T02:45:01.955Z,98.3
2022-11-24T02:50:02.227Z,98.18
2022-11-24T02:55:01.535Z,98.01
2022-11-24T03:00:02.077Z,97.95
2022-11-24T03:05:01.340Z,96.8
2022-11-24T03:10:01.525Z,96.31
2022-11-24T03:15:01.312Z,99.01
2022-11-24T03:20:04.900Z,98.46
2022-11-24T03:25:01.905Z,98.18
2022-11-24T03:30:02.137Z,96.12
2022-11-24T03:35:02.137Z,98.02
2022-11-24T03:40:02.200Z,96.41
2022-11-24T03:45:29.783Z,96.57
2022-11-24T03:50:01.879Z,96.76
2022-11-24T03:55:01.997Z,96.52
2022-11-24T04:00:01.593Z,98.85
2022-11-24T04:05:01.645Z,97.4
2022-11-24T04:10:01.771Z,98.09
2022-11-24T04:15:01.864Z,97.82
2022-11-24T04:20:02.008Z,95.15
2022-11-24T04:25:01.935Z,98.4
2022-11-24T04:30:02.206Z,97.76
2022-11-24T04:35:01.477Z,96.66
2022-11-24T04:40:02.004Z,97.78
2022-11-24T04:45:02.221Z,97.98
2022-11-24T04:50:01.828Z,96.99
2022-11-24T04:55:01.920Z,98.28
2022-11-24T05:00:02.206Z,98.3
2022-11-24T05:05:01.468Z,95.7
2022-11-24T05:10:01.994Z,97.62
2022-11-24T05:15:01.780Z,97.62
2022-11-24T05:20:01.883Z,97.87
2022-11-24T05:25:01.708Z,98.25
2022-11-24T05:30:01.646Z,98.05
2022-11-24T05:35:02.114Z,98.31
2022-11-24T05:40:02.091Z,98.24
2022-11-24T05:45:02.185Z,97.81
2022-11-24T05:50:01.399Z,98.47
2022-11-24T05:55:01.796Z,96.23
2022-11-24T06:00:01.463Z,98.6
2022-11-24T06:05:02.118Z,99.34
2022-11-24T06:10:02.762Z,99.85
2022-11-24T06:15:01.960Z,98.29
2022-11-24T06:20:01.932Z,98.52
2022-11-24T06:25:01.983Z,100.15
2022-11-24T06:30:01.713Z,98.41
2022-11-24T06:35:01.586Z,98.4
2022-11-24T06:40:01.777Z,98.39
2022-11-24T06:45:06.020Z,98.34
2022-11-24T06:50:01.682Z,98.56
2022-11-24T06:55:01.798Z,98.47
2022-11-24T07:00:01.783Z,98.99
2022-11-24T07:05:01.779Z,99.2
2022-11-24T07:10:01.601Z,99.19
2022-11-24T07:15:01.677Z,99.77
2022-11-24T07:20:01.784Z,99.21
2022-11-24T07:25:01.349Z,99.3
2022-11-24T07:30:01.707Z,99.65
2022-11-24T07:35:01.825Z,99.69
2022-11-24T07:40:01.323Z,99.63
2022-11-24T07:45:02.089Z,99.49
2022-11-24T07:50:01.885Z,99.38
2022-11-24T07:55:01.333Z,99.56
2022-11-24T08:00:01.616Z,99.56
2022-11-24T08:05:02.133Z,99.52
2022-11-24T08:10:01.345Z,99.88
2022-11-24T08:15:03.322Z,100.02
2022-11-24T08:20:02.166Z,99.51
2022-11-24T08:25:02.023Z,99.55
2022-11-24T08:30:01.879Z,99.45
2022-11-24T08:35:13.424Z,99.21
2022-11-24T08:40:02.076Z,99.11
2022-11-24T08:45:17.498Z,99.16
2022-11-24T08:50:01.885Z,99.12
2022-11-24T08:55:02.099Z,99.18
2022-11-24T09:00:01.828Z,99.02
2022-11-24T09:05:01.601Z,98.9
2022-11-24T09:10:01.530Z,98.6
2022-11-24T09:15:01.849Z,98.09
2022-11-24T09:20:01.608Z,98.39
2022-11-24T09:25:01.776Z,99.23
2022-11-24T09:30:01.743Z,99.34
2022-11-24T09:35:01.558Z,98.4
2022-11-24T09:40:01.467Z,97.44
2022-11-24T09:45:01.444Z,98.29
2022-11-24T09:50:02.209Z,98.39
2022-11-24T09:55:01.792Z,98.47
2022-11-24T10:00:01.851Z,96.19
2022-11-24T10:05:01.848Z,95.89
2022-11-24T10:10:02.141Z,96.08
2022-11-24T10:15:01.963Z,95.11
2022-11-24T10:20:01.722Z,94.4
2022-11-24T10:25:01.732Z,94.1
2022-11-24T10:30:01.555Z,94.02
2022-11-24T10:35:01.482Z,92.2
2022-11-24T10:40:01.594Z,93.16
2022-11-24T10:45:02.111Z,93.22
2022-11-24T10:50:01.993Z,93.8
2022-11-24T10:55:01.706Z,93.51
2022-11-24T11:00:01.713Z,93.31
2022-11-24T11:05:01.701Z,92
2022-11-24T11:10:01.488Z,93.29
2022-11-24T11:15:01.439Z,91.76
2022-11-24T11:20:02.590Z,89.73
2022-11-24T11:25:02.161Z,90.36
2022-11-24T11:31:16.830Z,90.63
2022-11-24T11:35:01.647Z,90.33
2022-11-24T11:40:01.652Z,90.53
2022-11-24T11:45:01.571Z,88.86
2022-11-24T11:50:01.481Z,90.81
2022-11-24T11:55:01.281Z,91
2022-11-24T12:00:02.117Z,90.32
2022-11-24T12:05:01.331Z,89.61
2022-11-24T12:10:01.946Z,89.68
2022-11-24T12:15:07.301Z,89.41
2022-11-24T12:20:01.718Z,88.42
2022-11-24T12:25:01.746Z,88.53
2022-11-24T12:30:01.757Z,88.01
2022-11-24T12:35:01.645Z,88.35
2022-11-24T12:40:01.593Z,87.4
2022-11-24T12:45:01.607Z,86.54
2022-11-24T12:50:01.583Z,87.11
2022-11-24T12:55:01.543Z,85.72
2022-11-24T13:00:01.582Z,86.37
2022-11-24T13:05:01.512Z,87.55
2022-11-24T13:10:01.809Z,86.98
2022-11-24T13:15:01.676Z,86.31
2022-11-24T13:20:01.417Z,85.24
2022-11-24T13:25:01.416Z,87.02
2022-11-24T13:30:01.718Z,87.07
2022-11-24T13:35:01.935Z,87.34
2022-11-24T13:40:01.854Z,87.98
2022-11-24T13:45:01.372Z,85.41
2022-11-24T13:50:02.110Z,86.68
2022-11-24T13:55:04.025Z,85.95
2022-11-24T14:00:01.402Z,86.37
2022-11-24T14:05:01.831Z,86.85
2022-11-24T14:10:01.723Z,87.13
2022-11-24T14:15:01.334Z,87.56
2022-11-24T14:20:01.764Z,87.82
2022-11-24T14:25:02.001Z,87.63
2022-11-24T14:30:01.734Z,87.92
2022-11-24T14:35:01.874Z,87.72
2022-11-24T14:40:01.775Z,87.89
2022-11-24T14:45:01.680Z,86.87
2022-11-24T14:50:01.889Z,87.2
2022-11-24T14:55:21.427Z,85.7
2022-11-24T15:00:02.053Z,87.33
2022-11-24T15:05:03.744Z,87.98
2022-11-24T15:10:02.030Z,88.18
2022-11-24T15:15:01.974Z,87.95
2022-11-24T15:20:01.997Z,88.28
2022-11-24T15:25:01.900Z,88.77
2022-11-24T15:30:01.743Z,89.81
2022-11-24T15:35:01.670Z,89.57
2022-11-24T15:40:01.723Z,89.01
2022-11-24T15:45:01.830Z,88.99
2022-11-24T15:50:01.669Z,88.72
2022-11-24T15:55:01.578Z,88.72
2022-11-24T16:00:01.609Z,88.04
2022-11-24T16:05:01.663Z,88.12
2022-11-24T16:10:01.714Z,88.59
2022-11-24T16:15:01.719Z,89.46
2022-11-24T16:20:01.786Z,89.34
2022-11-24T16:25:02.226Z,89.28
2022-11-24T16:30:02.038Z,89.81
2022-11-24T16:35:01.784Z,90.06
2022-11-24T16:40:01.826Z,89.54
2022-11-24T16:45:01.566Z,89.87
2022-11-24T16:50:01.541Z,89.87
2022-11-24T16:55:01.446Z,89.42
2022-11-24T17:00:02.154Z,89.15
2022-11-24T17:05:01.868Z,89.04
2022-11-24T17:10:01.938Z,88.81
2022-11-24T17:15:31.033Z,88.81
2022-11-24T17:20:01.247Z,89.04
2022-11-24T17:25:01.405Z,89.35
2022-11-24T17:30:01.319Z,89.27
2022-11-24T17:35:01.856Z,88.81
2022-11-24T17:40:26.856Z,88.59
2022-11-24T17:45:01.442Z,88.81
2022-11-24T17:50:01.483Z,88.55
2022-11-24T17:55:01.552Z,89.33
2022-11-24T18:00:01.378Z,89.81
2022-11-24T18:05:01.468Z,89.7
2022-11-24T18:10:01.425Z,89.83
2022-11-24T18:15:01.276Z,89.62
2022-11-24T18:20:01.281Z,89.66
2022-11-24T18:25:02.292Z,89.04
2022-11-24T18:30:01.806Z,89.44
2022-11-24T18:35:01.845Z,89.26
2022-11-24T18:40:01.857Z,89.4
2022-11-24T18:45:01.686Z,89.4
2022-11-24T18:50:01.491Z,89.29
2022-11-24T18:55:01.343Z,89.76
2022-11-24T19:00:01.591Z,89.79
2022-11-24T19:05:01.733Z,90.2
2022-11-24T19:10:01.760Z,90.26
2022-11-24T19:15:01.712Z,90.48
2022-11-24T19:20:01.603Z,90.84
2022-11-24T19:25:01.594Z,91.23
2022-11-24T19:30:01.591Z,91.74
2022-11-24T19:35:01.539Z,92.43
2022-11-24T19:40:01.610Z,92.59
2022-11-24T19:45:02.227Z,93.06
2022-11-24T19:50:05.995Z,93.29
2022-11-24T19:55:01.982Z,93.72
2022-11-24T20:00:01.564Z,94.36
2022-11-24T20:05:01.700Z,94.75
2022-11-24T20:10:07.359Z,95.12
2022-11-24T20:15:02.161Z,95.54
2022-11-24T20:20:02.143Z,96.24
2022-11-24T20:25:01.916Z,96.75
2022-11-24T20:30:01.965Z,97.05
2022-11-24T20:35:01.837Z,96.66
2022-11-24T20:40:01.405Z,95.96
2022-11-24T20:45:01.675Z,95.96
2022-11-24T20:50:01.565Z,95.8
2022-11-24T20:55:01.454Z,95.48
2022-11-24T21:00:01.483Z,95.27
2022-11-24T21:05:01.552Z,95.48
2022-11-24T21:10:01.374Z,95.62
2022-11-24T21:15:01.409Z,95.72
2022-11-24T21:20:01.972Z,96.3
2022-11-24T21:25:01.342Z,96.92
2022-11-24T21:30:01.264Z,97.66
2022-11-24T21:35:02.353Z,98.14
2022-11-24T21:40:01.249Z,97.69
2022-11-24T21:45:01.270Z,97.78
2022-11-24T21:50:01.520Z,98.47
2022-11-24T21:55:01.587Z,98.41
2022-11-24T22:00:01.583Z,97.74
2022-11-24T22:05:01.550Z,98.65
2022-11-24T22:10:01.653Z,97.78
2022-11-24T22:15:01.498Z,98.26
2022-11-24T22:20:01.652Z,97.46
2022-11-24T22:25:01.688Z,98.21
2022-11-24T22:30:01.549Z,95.73
2022-11-24T22:35:01.829Z,98.45
2022-11-24T22:40:01.587Z,98.31
2022-11-24T22:45:01.803Z,97.89
2022-11-24T22:50:01.753Z,97.33
2022-11-24T22:55:01.504Z,98.47
2022-11-24T23:00:01.462Z,97.79
2022-11-24T23:05:01.676Z,98.72
2022-11-24T23:10:01.607Z,97.84
2022-11-24T23:15:01.468Z,98.51
2022-11-24T23:20:01.928Z,95.96
2022-11-24T23:25:01.948Z,98.66
2022-11-24T23:30:01.870Z,95.89
2022-11-24T23:35:02.652Z,98.55
2022-11-24T23:40:01.593Z,96.04
2022-11-24T23:45:01.595Z,98.56
2022-11-24T23:50:01.500Z,98.65
2022-11-24T23:55:02.218Z,95.86
